EST,Max TemperatureF,Mean TemperatureF,Min TemperatureF,Max Dew PointF,MeanDew PointF,Min DewpointF,Max Humidity, Mean Humidity, Min Humidity, Max Sea Level PressureIn, Mean Sea Level PressureIn, Min Sea Level PressureIn, Max VisibilityMiles, Mean VisibilityMiles, Min VisibilityMiles, Max Wind SpeedMPH, Mean Wind SpeedMPH, Max Gust SpeedMPH,PrecipitationIn, CloudCover, Events, WindDirDegrees
2012-12-1,69,56,42,50,47,41,100,77,40,30.41,30.36,30.33,10,10,5,4,0,,0.00,2,,25
2012-12-2,71,58,46,59,53,46,100,85,52,30.40,30.34,30.29,10,8,2,7,1,,0.00,5,,161
2012-12-3,75,63,51,64,54,50,100,83,41,30.34,30.30,30.25,10,7,0,8,1,,0.00,2,,243
2012-12-4,73,62,51,63,55,50,100,84,46,30.36,30.28,30.23,10,7,0,7,1,,0.00,4,,239
2012-12-5,73,62,51,63,55,46,100,82,50,30.23,30.17,30.11,10,8,0,12,2,17,0.00,6,,343
2012-12-6,55,50,46,54,40,34,94,65,50,30.28,30.22,30.18,10,10,10,13,6,,0.00,7,,53
2012-12-7,59,52,46,54,44,36,100,72,58,30.18,30.09,30.02,10,10,7,9,4,,0.00,8,,25
2012-12-8,71,60,50,55,53,50,100,87,53,30.09,30.05,30.01,10,7,1,7,1,,0.00,4,,237
2012-12-9,73,63,53,64,60,54,100,93,69,30.15,30.08,30.00,10,6,0,6,1,,0.00,6,,177
2012-12-10,71,66,60,64,60,55,100,83,57,29.99,29.85,29.75,10,7,0,13,3,20,0.00,5,,213
2012-12-11,68,60,53,61,52,37,100,74,51,30.11,29.94,29.77,10,9,1,10,2,,0.00,6,,281
2012-12-12,53,47,41,45,39,34,100,75,51,30.27,30.20,30.10,10,9,2,16,8,23,0.00,7,,31
2012-12-13,53,46,39,41,38,36,100,81,54,30.37,30.31,30.21,10,9,2,17,8,25,0.00,5,,18
2012-12-14,59,47,35,36,32,27,100,66,29,30.39,30.31,30.23,10,10,10,8,3,,0.00,0,,24
2012-12-15,59,46,33,52,39,34,100,72,44,30.27,30.19,30.10,10,10,7,6,0,,0.00,5,,68
2012-12-16,59,56,53,59,56,52,100,100,94,30.10,30.02,29.90,10,2,0,5,0,,0.00,8,,111
2012-12-17,60,58,55,61,58,55,100,100,100,29.90,29.83,29.73,10,7,1,8,2,,0.00,8,,231
2012-12-18,64,52,41,61,47,32,100,76,34,29.97,29.82,29.72,10,10,5,12,5,25,0.00,3,,251
2012-12-19,68,52,35,43,38,34,100,63,30,30.12,30.04,29.97,10,10,10,7,3,,0.00,0,,252
2012-12-20,69,56,42,64,48,41,100,79,40,30.12,29.91,29.59,10,10,2,17,4,29,0.00,3,,159
2012-12-21,51,45,39,45,28,23,76,53,37,29.91,29.78,29.66,10,10,10,17,11,36,0.00,1,,257
2012-12-22,55,44,32,28,21,14,70,48,21,30.14,30.07,29.92,10,10,10,8,5,18,0.00,0,,256
2012-12-23,57,42,28,32,27,18,93,56,21,30.20,30.12,30.07,10,10,10,8,1,,0.00,1,,200
2012-12-24,55,48,41,52,40,32,100,73,41,30.08,30.00,29.91,10,10,3,6,1,,0.00,6,,207
2012-12-25,60,56,51,54,50,46,100,87,59,30.10,30.03,29.95,10,8,1,8,2,,0.00,7,,61
2012-12-26,68,54,41,64,46,32,100,78,43,29.97,29.68,29.47,10,9,2,18,10,30,0.00,6,Thunderstorm,186
2012-12-27,55,44,32,37,33,32,100,71,41,30.08,29.94,29.76,10,10,5,9,4,16,0.00,0,,262
2012-12-28,50,41,32,36,32,28,93,71,50,30.18,30.09,29.96,10,10,10,8,3,,0.00,2,,56
2012-12-29,53,47,41,48,40,30,100,81,53,30.03,29.84,29.74,10,8,2,12,4,21,0.00,6,,285
2012-12-30,50,41,32,30,25,18,87,59,30,30.42,30.33,30.04,10,10,10,9,2,,0.00,0,,318
2012-12-31,59,44,28,43,30,21,100,64,25,30.41,30.30,30.16,10,10,10,10,2,16,0.00,2,,220